Time;durP1;ratioP1;P1;durP2;ratioP2;P2;SDS_P1;SDS_P2;PMS_P1;PMS_P2;Temp;Humidity;BMP_temperature;BMP_pressure;BME280_temperature;BME280_humidity;BME280_pressure;Samples;Min_cycle;Max_cycle;Signal;HPM_P1;HPM_P2
2022/02/22 00:00:11;;;;;;;13.67;4.30;;;7.70;97.60;;;;;;5018507;28;20183;-87
2022/02/22 00:02:37;;;;;;;12.43;3.63;;;7.80;97.50;;;;;;5019712;28;20175;-87
2022/02/22 00:05:03;;;;;;;16.43;4.70;;;7.90;97.30;;;;;;5023141;28;20201;-85
2022/02/22 00:07:29;;;;;;;12.40;4.30;;;7.80;97.30;;;;;;5028150;28;20198;-84
2022/02/22 00:09:56;;;;;;;15.50;3.90;;;7.90;97.10;;;;;;5026120;28;20182;-88
2022/02/22 00:12:22;;;;;;;14.13;4.70;;;7.90;96.90;;;;;;5027674;28;20181;-87
2022/02/22 00:14:48;;;;;;;14.83;3.97;;;7.90;97.60;;;;;;5020585;28;20261;-87
2022/02/22 00:17:14;;;;;;;14.60;4.50;;;7.60;97.80;;;;;;5017478;28;20178;-88
2022/02/22 00:19:40;;;;;;;17.03;4.10;;;7.60;98.20;;;;;;5018188;28;20205;-88
2022/02/22 00:22:06;;;;;;;13.73;3.77;;;7.50;98.30;;;;;;5017300;28;20217;-87
2022/02/22 00:24:32;;;;;;;17.97;4.17;;;7.50;98.60;;;;;;5015484;28;20170;-86
2022/02/22 00:26:57;;;;;;;10.97;3.90;;;7.50;98.90;;;;;;5016224;28;20224;-87
2022/02/22 00:29:23;;;;;;;12.50;4.53;;;7.40;99.20;;;;;;5015500;28;20565;-88
2022/02/22 00:31:51;;;;;;;12.30;4.27;;;7.40;99.40;;;;;;5017517;28;20205;-87
2022/02/22 00:34:17;;;;;;;16.37;3.90;;;7.60;99.40;;;;;;5016966;28;20182;-87
2022/02/22 00:36:46;;;;;;;13.97;3.47;;;7.40;99.30;;;;;;5017373;28;20181;-88
2022/02/22 00:39:12;;;;;;;14.83;3.60;;;7.50;99.60;;;;;;5017080;28;20177;-88
2022/02/22 00:41:39;;;;;;;17.60;4.50;;;7.40;99.60;;;;;;5017297;28;20171;-87
2022/02/22 00:44:06;;;;;;;15.53;3.23;;;7.60;99.70;;;;;;5018189;28;20174;-87
2022/02/22 00:46:35;;;;;;;13.03;4.20;;;7.50;99.50;;;;;;5016382;28;20674;-87
2022/02/22 00:49:04;;;;;;;16.13;3.97;;;7.50;99.60;;;;;;5016325;28;20237;-87
2022/02/22 00:51:29;;;;;;;19.90;4.47;;;7.50;99.40;;;;;;5018783;28;20179;-87
2022/02/22 00:53:55;;;;;;;13.97;4.30;;;7.50;99.10;;;;;;5017084;28;20182;-86
2022/02/22 00:56:22;;;;;;;16.10;4.13;;;7.50;99.10;;;;;;5017463;28;20605;-87
2022/02/22 00:58:50;;;;;;;15.53;4.33;;;7.40;98.90;;;;;;5016532;28;20182;-88
2022/02/22 01:01:16;;;;;;;17.30;4.27;;;7.40;99.00;;;;;;5017270;28;20229;-87
2022/02/22 01:03:44;;;;;;;12.97;3.50;;;7.60;98.90;;;;;;5015387;28;20175;-88
2022/02/22 01:06:10;;;;;;;13.17;3.53;;;7.40;98.60;;;;;;5016848;28;20637;-87
2022/02/22 01:08:37;;;;;;;15.57;4.13;;;7.50;98.60;;;;;;5017251;28;20202;-87
2022/02/22 01:11:03;;;;;;;17.40;4.13;;;7.50;98.40;;;;;;5017952;28;20177;-87
2022/02/22 01:13:29;;;;;;;15.13;3.87;;;7.40;98.60;;;;;;5016695;28;20175;-88
2022/02/22 01:15:54;;;;;;;20.33;4.23;;;7.40;98.40;;;;;;5016818;28;20646;-88
2022/02/22 01:18:22;;;;;;;17.17;4.13;;;7.30;98.20;;;;;;5014822;28;20176;-87
2022/02/22 01:20:49;;;;;;;15.40;3.63;;;7.40;98.20;;;;;;5015941;28;20202;-89
2022/02/22 01:23:15;;;;;;;15.87;3.70;;;7.40;98.20;;;;;;5016654;28;20186;-88
2022/02/22 01:25:41;;;;;;;19.90;3.83;;;7.20;98.20;;;;;;5016941;28;20182;-87
2022/02/22 01:28:06;;;;;;;23.47;4.33;;;7.20;98.40;;;;;;5000100;28;20633;-88
2022/02/22 01:30:32;;;;;;;19.10;4.50;;;7.10;98.40;;;;;;5015478;28;20213;-88
2022/02/22 01:32:58;;;;;;;12.10;3.83;;;7.20;98.40;;;;;;5015979;28;20197;-89
2022/02/22 01:35:23;;;;;;;15.93;3.90;;;7.20;98.10;;;;;;5015874;28;20189;-87
2022/02/22 01:37:49;;;;;;;15.13;3.30;;;7.30;97.80;;;;;;5017807;28;20193;-88
2022/02/22 01:40:15;;;;;;;21.17;4.53;;;7.30;97.60;;;;;;5016875;28;20182;-88
2022/02/22 01:42:42;;;;;;;13.67;3.60;;;7.20;97.20;;;;;;5017546;28;20193;-87
2022/02/22 01:45:09;;;;;;;15.17;4.30;;;7.10;97.50;;;;;;5016061;28;20183;-87
2022/02/22 01:47:35;;;;;;;14.57;3.83;;;7.00;98.30;;;;;;5016163;28;20186;-88
2022/02/22 01:50:01;;;;;;;17.03;4.00;;;7.00;98.70;;;;;;5014591;28;20590;-88
2022/02/22 01:52:30;;;;;;;14.40;4.00;;;6.90;98.60;;;;;;5016750;28;20186;-86
2022/02/22 01:54:55;;;;;;;14.43;3.97;;;7.10;99.00;;;;;;5017855;28;20198;-86
2022/02/22 01:57:23;;;;;;;15.13;3.70;;;7.00;99.20;;;;;;5018543;28;20170;-86
2022/02/22 01:59:50;;;;;;;15.83;3.67;;;7.10;99.00;;;;;;5031675;28;20190;-85
2022/02/22 02:02:16;;;;;;;15.23;3.73;;;7.30;98.50;;;;;;5036292;28;20229;-87
2022/02/22 02:04:43;;;;;;;12.03;4.00;;;7.30;98.00;;;;;;5029012;28;20178;-87
2022/02/22 02:07:08;;;;;;;15.53;3.60;;;7.30;97.70;;;;;;5017969;28;20182;-88
2022/02/22 02:09:35;;;;;;;18.13;3.77;;;7.30;97.60;;;;;;5017892;28;20218;-87
2022/02/22 02:12:02;;;;;;;17.90;4.17;;;7.20;97.90;;;;;;5020322;28;20174;-86
2022/02/22 02:14:34;;;;;;;15.43;3.70;;;7.20;98.40;;;;;;5022616;28;20190;-87
2022/02/22 02:17:02;;;;;;;13.53;3.80;;;7.20;98.30;;;;;;5030018;28;20227;-87
2022/02/22 02:19:29;;;;;;;18.83;4.50;;;7.20;98.50;;;;;;5008390;28;20206;-87
2022/02/22 02:21:58;;;;;;;22.53;5.10;;;7.40;98.50;;;;;;5034209;28;20170;-88
2022/02/22 02:24:25;;;;;;;16.00;4.33;;;7.20;98.40;;;;;;5022117;28;20178;-86
2022/02/22 02:26:52;;;;;;;18.77;4.60;;;7.10;98.60;;;;;;5014723;28;20218;-90
2022/02/22 02:29:22;;;;;;;15.23;3.87;;;7.00;99.00;;;;;;5012792;28;20218;-89
2022/02/22 02:31:50;;;;;;;15.60;4.50;;;7.00;99.50;;;;;;4986286;28;20616;-87
2022/02/22 02:34:19;;;;;;;17.37;4.30;;;6.90;99.90;;;;;;5002985;28;20195;-87
2022/02/22 02:36:47;;;;;;;16.53;4.47;;;6.70;99.90;;;;;;4997515;28;20167;-88
2022/02/22 02:39:14;;;;;;;15.57;3.67;;;6.90;99.90;;;;;;4996618;28;20176;-87
2022/02/22 02:41:44;;;;;;;12.33;3.77;;;6.90;99.90;;;;;;4996868;28;20175;-87
2022/02/22 02:44:13;;;;;;;13.93;4.33;;;7.00;99.90;;;;;;5002119;28;20178;-89
2022/02/22 02:46:40;;;;;;;15.67;4.03;;;7.10;99.90;;;;;;5003618;28;20167;-88
2022/02/22 02:49:08;;;;;;;14.23;4.10;;;7.00;99.90;;;;;;5013861;28;20221;-86
2022/02/22 02:51:34;;;;;;;13.93;4.17;;;7.00;99.90;;;;;;5018068;28;20181;-87
2022/02/22 02:54:00;;;;;;;12.67;3.67;;;7.00;99.90;;;;;;5018939;28;20184;-88
2022/02/22 02:56:27;;;;;;;14.27;4.60;;;7.20;99.90;;;;;;5018210;28;20234;-88
2022/02/22 02:58:59;;;;;;;17.80;4.73;;;6.90;99.90;;;;;;5012615;28;20179;-86
2022/02/22 03:01:27;;;;;;;10.43;3.73;;;6.80;99.90;;;;;;5001513;28;20186;-87
2022/02/22 03:03:54;;;;;;;13.30;4.17;;;6.80;99.90;;;;;;5001678;28;20175;-87
2022/02/22 03:06:20;;;;;;;16.87;4.80;;;6.70;99.90;;;;;;5006386;28;20198;-87
2022/02/22 03:08:46;;;;;;;15.97;4.13;;;6.60;99.90;;;;;;5006035;28;20215;-89
2022/02/22 03:11:14;;;;;;;14.30;4.43;;;6.60;99.90;;;;;;5005039;28;20182;-86
2022/02/22 03:13:41;;;;;;;14.30;3.70;;;6.50;99.90;;;;;;5004676;28;20175;-86
2022/02/22 03:16:08;;;;;;;15.37;3.60;;;6.40;99.90;;;;;;5006175;28;20171;-86
2022/02/22 03:18:36;;;;;;;13.33;3.60;;;6.40;99.90;;;;;;5007782;28;20167;-87
2022/02/22 03:21:03;;;;;;;17.37;4.73;;;6.60;99.90;;;;;;5007126;28;20190;-87
2022/02/22 03:23:31;;;;;;;12.40;3.40;;;6.50;99.90;;;;;;5005537;28;20238;-88
2022/02/22 03:25:57;;;;;;;15.13;4.13;;;6.50;99.90;;;;;;5019599;28;20214;-88
2022/02/22 03:28:22;;;;;;;15.90;4.03;;;6.60;99.90;;;;;;5018819;28;20250;-87
2022/02/22 03:30:49;;;;;;;12.67;3.63;;;6.50;99.90;;;;;;5018328;28;20249;-86
2022/02/22 03:33:15;;;;;;;11.93;4.07;;;6.50;99.90;;;;;;5018773;28;20248;-87
2022/02/22 03:35:42;;;;;;;14.53;3.67;;;6.60;99.90;;;;;;5018452;28;20170;-87
2022/02/22 03:38:08;;;;;;;15.40;4.57;;;6.70;99.90;;;;;;5018393;28;20174;-87
2022/02/22 03:40:34;;;;;;;11.33;4.20;;;6.70;99.90;;;;;;5020775;28;20233;-87
2022/02/22 03:43:00;;;;;;;10.17;4.03;;;6.80;99.90;;;;;;5031430;28;20162;-86
2022/02/22 03:45:27;;;;;;;13.67;4.33;;;6.60;99.90;;;;;;5034053;28;20182;-87
2022/02/22 03:47:55;;;;;;;10.60;3.50;;;6.70;99.90;;;;;;5032807;28;20186;-86
2022/02/22 03:50:23;;;;;;;8.83;3.17;;;6.70;99.90;;;;;;5030330;28;20190;-87
2022/02/22 03:52:50;;;;;;;15.50;4.03;;;6.70;99.90;;;;;;5025850;28;20209;-87
2022/02/22 03:55:16;;;;;;;9.63;3.20;;;6.80;99.90;;;;;;5030289;28;20193;-87
2022/02/22 03:57:43;;;;;;;11.93;4.10;;;6.60;99.90;;;;;;5029560;28;20193;-90
2022/02/22 04:00:15;;;;;;;14.97;3.37;;;6.50;99.90;;;;;;5028455;28;20178;-88
2022/02/22 04:02:41;;;;;;;13.47;3.67;;;6.20;99.90;;;;;;5020864;28;20174;-87
2022/02/22 04:05:12;;;;;;;13.47;3.77;;;6.30;99.90;;;;;;5017372;28;20545;-88
2022/02/22 04:07:44;;;;;;;14.07;3.47;;;6.40;99.90;;;;;;5018121;28;20167;-86
2022/02/22 04:10:12;;;;;;;15.47;4.23;;;6.40;99.90;;;;;;5018372;28;20309;-88
2022/02/22 04:12:38;;;;;;;11.83;4.27;;;6.40;99.90;;;;;;5018007;28;20646;-87
2022/02/22 04:15:08;;;;;;;14.47;4.70;;;6.30;99.90;;;;;;5018008;28;20631;-87
2022/02/22 04:17:34;;;;;;;13.03;3.80;;;6.30;99.90;;;;;;5018631;28;20166;-88
2022/02/22 04:20:00;;;;;;;11.20;3.53;;;6.20;99.90;;;;;;5017656;28;20225;-87
2022/02/22 04:22:26;;;;;;;16.77;4.10;;;6.10;99.90;;;;;;5019724;28;20197;-87
2022/02/22 04:24:54;;;;;;;14.77;3.43;;;6.10;99.90;;;;;;5018669;28;20256;-88
2022/02/22 04:27:19;;;;;;;10.87;3.80;;;6.10;99.90;;;;;;5017364;28;20193;-87
2022/02/22 04:29:45;;;;;;;12.60;3.63;;;6.10;99.90;;;;;;5016497;28;20750;-88
2022/02/22 04:32:12;;;;;;;16.37;4.17;;;6.10;99.90;;;;;;5017256;28;20166;-88
2022/02/22 04:34:37;;;;;;;13.10;3.63;;;6.00;99.90;;;;;;5017302;28;20250;-86
2022/02/22 04:37:05;;;;;;;13.07;3.43;;;6.10;99.90;;;;;;5017628;28;20210;-88
2022/02/22 04:39:34;;;;;;;12.50;4.03;;;6.40;99.90;;;;;;5015750;28;20174;-88
2022/02/22 04:42:00;;;;;;;15.27;4.27;;;6.10;99.90;;;;;;5017181;28;20185;-87
2022/02/22 04:44:26;;;;;;;10.80;3.13;;;5.90;99.90;;;;;;5016954;28;20175;-88
2022/02/22 04:46:51;;;;;;;13.90;4.27;;;6.00;99.90;;;;;;5018072;28;20182;-87
2022/02/22 04:49:17;;;;;;;17.23;4.20;;;6.00;99.90;;;;;;5016928;28;20238;-87
2022/02/22 04:51:43;;;;;;;13.13;3.77;;;6.00;99.90;;;;;;5016571;28;20182;-88
2022/02/22 04:54:10;;;;;;;10.27;3.90;;;6.00;99.90;;;;;;5015715;28;20178;-87
2022/02/22 04:56:36;;;;;;;12.37;3.80;;;6.00;99.90;;;;;;5016596;28;20182;-87
2022/02/22 04:59:03;;;;;;;15.67;4.57;;;5.90;99.90;;;;;;5016605;28;20702;-87
2022/02/22 05:01:29;;;;;;;14.70;5.57;;;5.90;99.90;;;;;;5017225;28;20174;-87
2022/02/22 05:03:54;;;;;;;13.47;3.97;;;5.80;99.90;;;;;;5016821;28;20182;-87
2022/02/22 05:06:21;;;;;;;11.10;4.00;;;5.80;99.90;;;;;;5016690;28;20174;-87
2022/02/22 05:08:47;;;;;;;16.93;4.50;;;5.70;99.90;;;;;;5016558;28;20210;-88
2022/02/22 05:11:13;;;;;;;13.00;3.53;;;5.80;99.90;;;;;;5018443;28;20542;-88
2022/02/22 05:13:38;;;;;;;11.87;4.97;;;5.70;99.90;;;;;;5016949;28;20205;-90
2022/02/22 05:16:04;;;;;;;17.83;4.57;;;5.80;99.90;;;;;;5017905;28;20185;-88
2022/02/22 05:18:30;;;;;;;15.93;4.80;;;5.80;99.90;;;;;;5016714;28;20182;-88
2022/02/22 05:20:56;;;;;;;13.87;4.27;;;5.70;99.90;;;;;;5017256;28;20194;-88
2022/02/22 05:23:26;;;;;;;12.53;4.50;;;5.60;99.90;;;;;;5016889;28;20332;-87
2022/02/22 05:25:55;;;;;;;17.03;4.73;;;5.60;99.90;;;;;;5016968;28;20272;-87
2022/02/22 05:28:26;;;;;;;12.87;4.17;;;5.70;99.90;;;;;;5016722;28;20236;-89
2022/02/22 05:30:52;;;;;;;14.80;4.07;;;5.60;99.90;;;;;;5020957;28;20210;-88
2022/02/22 05:33:19;;;;;;;16.43;4.40;;;5.60;99.90;;;;;;5005346;28;20639;-87
2022/02/22 05:35:50;;;;;;;19.73;5.13;;;5.70;99.90;;;;;;5037023;28;20189;-86
2022/02/22 05:38:16;;;;;;;24.37;5.37;;;5.50;99.90;;;;;;5027876;28;20158;-86
2022/02/22 05:40:42;;;;;;;22.97;5.53;;;5.60;99.90;;;;;;5019467;28;20171;-87
2022/02/22 05:43:10;;;;;;;19.93;6.00;;;5.70;99.90;;;;;;5016404;28;20508;-88
2022/02/22 05:45:35;;;;;;;17.47;5.67;;;5.50;99.90;;;;;;5015939;28;20178;-88
2022/02/22 05:48:02;;;;;;;24.53;7.53;;;5.50;99.90;;;;;;5016513;28;20452;-87
2022/02/22 05:50:28;;;;;;;18.50;5.80;;;5.50;99.90;;;;;;5016073;28;20170;-89
2022/02/22 05:52:55;;;;;;;25.90;5.83;;;5.60;99.90;;;;;;5015812;28;20178;-88
2022/02/22 05:55:21;;;;;;;22.30;5.47;;;5.50;99.90;;;;;;5017487;28;20569;-89
2022/02/22 05:57:51;;;;;;;24.10;5.80;;;5.50;99.90;;;;;;5017992;28;20220;-88
2022/02/22 06:00:19;;;;;;;26.73;5.27;;;5.40;99.90;;;;;;5014613;28;20174;-89
2022/02/22 06:02:47;;;;;;;19.20;5.87;;;5.40;99.90;;;;;;5016812;28;20617;-90
2022/02/22 06:05:12;;;;;;;18.60;6.30;;;5.30;99.90;;;;;;5026376;28;20170;-85
2022/02/22 06:07:38;;;;;;;23.17;5.97;;;5.30;99.90;;;;;;5031871;28;20273;-87
2022/02/22 06:10:05;;;;;;;22.30;6.90;;;5.40;99.90;;;;;;5036910;28;20190;-84
2022/02/22 06:12:31;;;;;;;23.10;6.67;;;5.30;99.90;;;;;;5036415;28;20186;-86
2022/02/22 06:15:01;;;;;;;17.07;5.63;;;5.30;99.90;;;;;;5028636;28;20186;-88
2022/02/22 06:17:27;;;;;;;28.10;8.03;;;5.30;99.90;;;;;;5026284;28;20217;-88
2022/02/22 06:19:57;;;;;;;24.40;6.63;;;5.30;99.90;;;;;;5026467;28;20620;-89
2022/02/22 06:22:23;;;;;;;29.33;6.67;;;5.30;99.90;;;;;;5023224;28;20182;-88
2022/02/22 06:24:55;;;;;;;21.40;7.00;;;5.20;99.90;;;;;;5019426;28;20269;-88
2022/02/22 06:27:21;;;;;;;23.37;6.03;;;5.30;99.90;;;;;;5004909;28;20290;-88
2022/02/22 06:29:46;;;;;;;24.03;5.97;;;5.40;99.90;;;;;;5006528;28;20230;-88
2022/02/22 06:32:12;;;;;;;25.33;6.77;;;5.30;99.90;;;;;;5003806;28;20174;-89
2022/02/22 06:34:38;;;;;;;27.53;7.27;;;5.30;99.90;;;;;;5003091;28;20185;-88
2022/02/22 06:37:04;;;;;;;24.03;6.70;;;5.40;99.90;;;;;;5004279;28;20167;-89
2022/02/22 06:39:30;;;;;;;23.30;7.77;;;5.50;99.90;;;;;;5002994;28;20194;-87
2022/02/22 06:42:00;;;;;;;25.60;7.53;;;5.40;99.90;;;;;;5004000;28;20553;-86
2022/02/22 06:44:26;;;;;;;30.43;8.23;;;5.30;99.90;;;;;;5003342;28;20167;-87
2022/02/22 06:46:53;;;;;;;33.73;7.17;;;5.40;99.90;;;;;;5002936;28;20182;-89
2022/02/22 06:49:21;;;;;;;24.73;7.07;;;5.50;99.90;;;;;;5004472;28;20764;-87
2022/02/22 06:51:47;;;;;;;23.97;7.20;;;5.70;99.90;;;;;;4986401;28;20607;-87
2022/02/22 06:54:12;;;;;;;27.17;7.53;;;5.60;99.90;;;;;;5002896;28;20179;-88
2022/02/22 06:56:38;;;;;;;25.77;7.43;;;5.70;99.90;;;;;;5019422;28;20273;-86
2022/02/22 06:59:04;;;;;;;20.70;6.97;;;5.60;99.90;;;;;;5021674;28;20188;-87
2022/02/22 07:01:29;;;;;;;22.33;6.70;;;5.70;99.90;;;;;;5023834;28;20174;-86
2022/02/22 07:03:56;;;;;;;25.17;5.97;;;5.70;99.90;;;;;;5024883;28;20252;-86
2022/02/22 07:06:22;;;;;;;25.17;6.33;;;5.70;99.90;;;;;;5024594;28;20182;-84
2022/02/22 07:08:47;;;;;;;27.53;6.63;;;5.80;99.90;;;;;;5006668;28;20686;-86
2022/02/22 07:11:13;;;;;;;20.40;6.37;;;5.70;99.90;;;;;;5025482;28;20181;-89
2022/02/22 07:13:41;;;;;;;18.83;5.50;;;5.80;99.90;;;;;;5023956;28;20186;-87
2022/02/22 07:16:07;;;;;;;27.10;6.87;;;5.80;99.90;;;;;;5009312;28;20192;-88
2022/02/22 07:18:33;;;;;;;26.00;7.23;;;5.80;99.90;;;;;;5027469;28;20197;-87
2022/02/22 07:20:59;;;;;;;27.00;6.53;;;5.90;99.90;;;;;;5025097;28;20248;-89
2022/02/22 07:23:25;;;;;;;23.73;6.53;;;5.90;99.90;;;;;;5027729;28;20182;-87
2022/02/22 07:25:50;;;;;;;27.77;6.20;;;5.80;99.90;;;;;;5028586;28;20186;-86
2022/02/22 07:28:18;;;;;;;22.67;6.37;;;5.90;99.90;;;;;;5024376;28;20213;-85
2022/02/22 07:30:44;;;;;;;18.80;5.60;;;5.90;99.90;;;;;;5023269;28;20170;-86
2022/02/22 07:33:11;;;;;;;24.33;7.07;;;5.90;99.90;;;;;;5028485;28;20625;-89
2022/02/22 07:35:38;;;;;;;19.43;7.13;;;6.10;99.90;;;;;;5006239;28;20210;-87
2022/02/22 07:38:04;;;;;;;26.10;7.17;;;6.00;99.90;;;;;;5024369;28;20225;-88
2022/02/22 07:40:29;;;;;;;32.00;6.73;;;6.10;99.90;;;;;;5023055;28;20186;-87
2022/02/22 07:42:59;;;;;;;26.23;5.77;;;6.10;99.90;;;;;;5028826;28;20170;-87
2022/02/22 07:45:25;;;;;;;21.83;7.20;;;6.20;99.90;;;;;;5031005;28;20256;-88
2022/02/22 07:47:51;;;;;;;23.27;6.57;;;6.30;99.90;;;;;;5037754;28;20216;-89
2022/02/22 07:50:17;;;;;;;26.00;7.03;;;6.30;99.90;;;;;;5023381;28;20178;-87
2022/02/22 07:52:44;;;;;;;26.83;7.20;;;6.40;99.90;;;;;;5021657;28;20173;-89
2022/02/22 07:55:10;;;;;;;27.00;6.23;;;6.40;99.90;;;;;;5022865;28;20185;-87
2022/02/22 07:57:36;;;;;;;18.17;5.60;;;6.60;99.90;;;;;;5023735;28;20199;-88
2022/02/22 08:00:03;;;;;;;24.93;6.17;;;6.60;99.90;;;;;;5024079;28;20261;-89
2022/02/22 08:02:29;;;;;;;23.73;7.17;;;6.70;99.90;;;;;;5019622;28;20184;-88
2022/02/22 08:04:54;;;;;;;29.67;7.07;;;6.70;99.90;;;;;;5018616;28;20170;-88
2022/02/22 08:07:22;;;;;;;20.60;6.63;;;6.70;99.90;;;;;;5017505;28;20277;-88
2022/02/22 08:09:48;;;;;;;26.10;5.40;;;6.80;99.90;;;;;;5019243;28;20229;-86
2022/02/22 08:12:15;;;;;;;30.33;7.37;;;6.80;99.90;;;;;;5004423;28;20248;-89
2022/02/22 08:14:41;;;;;;;24.57;7.30;;;6.80;99.90;;;;;;5018125;28;20182;-87
2022/02/22 08:17:07;;;;;;;27.60;7.20;;;7.00;99.90;;;;;;5018389;28;20174;-89
2022/02/22 08:19:32;;;;;;;26.80;7.00;;;7.00;99.90;;;;;;5018537;28;20666;-87
2022/02/22 08:21:58;;;;;;;27.60;7.73;;;7.30;99.90;;;;;;5019204;28;20171;-87
2022/02/22 08:24:24;;;;;;;27.40;7.10;;;7.10;99.90;;;;;;5017208;28;20268;-88
2022/02/22 08:26:54;;;;;;;26.90;6.93;;;7.20;99.90;;;;;;5019002;28;20646;-87
2022/02/22 08:29:20;;;;;;;20.70;6.70;;;7.50;99.90;;;;;;5017498;28;20218;-86
2022/02/22 08:31:46;;;;;;;27.17;6.57;;;7.40;99.90;;;;;;5019595;28;20228;-88
2022/02/22 08:34:11;;;;;;;30.43;7.30;;;7.40;99.90;;;;;;5018131;28;20158;-86
2022/02/22 08:36:37;;;;;;;29.53;7.73;;;7.30;99.90;;;;;;5018622;28;20189;-87
2022/02/22 08:39:03;;;;;;;34.53;7.57;;;7.60;99.90;;;;;;5017830;28;20531;-86
2022/02/22 08:41:31;;;;;;;30.43;8.23;;;7.40;99.90;;;;;;5017808;28;20322;-86
2022/02/22 08:43:57;;;;;;;30.27;8.13;;;7.40;99.90;;;;;;5020110;28;20285;-86
2022/02/22 08:46:23;;;;;;;29.47;7.27;;;7.40;99.90;;;;;;5017811;28;20171;-88
2022/02/22 08:48:49;;;;;;;29.77;7.17;;;7.40;99.90;;;;;;5019854;28;20200;-87
2022/02/22 08:51:15;;;;;;;33.27;8.13;;;7.50;99.90;;;;;;5018132;28;20230;-88
2022/02/22 08:53:42;;;;;;;29.30;7.30;;;7.50;99.90;;;;;;5001041;28;20230;-87
2022/02/22 08:56:09;;;;;;;34.07;8.80;;;7.60;99.90;;;;;;5009856;28;20171;-86
2022/02/22 08:58:35;;;;;;;33.43;8.47;;;7.70;99.90;;;;;;4981950;28;20179;-86
2022/02/22 09:01:01;;;;;;;31.63;8.27;;;7.90;99.90;;;;;;4998647;28;20904;-86
2022/02/22 09:03:27;;;;;;;26.57;7.90;;;7.90;99.90;;;;;;4999814;28;20178;-86
2022/02/22 09:05:54;;;;;;;36.33;9.07;;;8.00;99.90;;;;;;4998854;28;20179;-86
2022/02/22 09:08:20;;;;;;;39.33;9.80;;;8.00;99.90;;;;;;4997939;28;20340;-86
2022/02/22 09:10:47;;;;;;;36.83;8.57;;;8.10;99.90;;;;;;4997443;28;20178;-85
2022/02/22 09:13:13;;;;;;;42.07;8.53;;;8.20;99.90;;;;;;4997737;28;20198;-86
2022/02/22 09:15:39;;;;;;;43.03;8.53;;;8.30;99.90;;;;;;4997061;28;20190;-86
2022/02/22 09:18:05;;;;;;;32.50;8.57;;;8.40;99.90;;;;;;4997698;28;20175;-87
2022/02/22 09:20:31;;;;;;;38.07;8.67;;;8.40;99.90;;;;;;4998167;28;20195;-86
2022/02/22 09:22:57;;;;;;;38.93;10.10;;;8.40;99.90;;;;;;5000584;28;20705;-85
2022/02/22 09:25:25;;;;;;;34.80;9.30;;;8.40;99.90;;;;;;4997336;28;20666;-88
2022/02/22 09:27:52;;;;;;;40.50;10.07;;;8.80;99.90;;;;;;5017735;28;20193;-88
2022/02/22 09:30:20;;;;;;;40.00;10.07;;;8.60;99.90;;;;;;5029737;28;20155;-85
2022/02/22 09:32:48;;;;;;;36.83;8.57;;;8.70;99.90;;;;;;5007807;28;20197;-90
2022/02/22 09:35:17;;;;;;;36.87;8.07;;;8.70;99.90;;;;;;5013772;28;20182;-86
2022/02/22 09:37:44;;;;;;;32.03;8.40;;;8.70;99.90;;;;;;5012632;28;20234;-86
2022/02/22 09:40:12;;;;;;;35.67;8.57;;;8.80;99.90;;;;;;5017985;28;20218;-85
2022/02/22 09:42:38;;;;;;;35.10;8.03;;;8.80;99.90;;;;;;5018398;28;20269;-88
2022/02/22 09:45:07;;;;;;;48.73;10.43;;;8.90;99.90;;;;;;5019124;28;20201;-86
2022/02/22 09:47:34;;;;;;;33.77;8.47;;;8.90;99.90;;;;;;5017811;28;20167;-87
2022/02/22 09:50:01;;;;;;;45.27;8.90;;;8.90;99.90;;;;;;5017936;28;20220;-86
2022/02/22 09:52:26;;;;;;;35.70;9.43;;;9.10;99.90;;;;;;5016472;28;20276;-86
2022/02/22 09:54:52;;;;;;;35.87;9.97;;;9.20;99.70;;;;;;4999935;28;20240;-88
2022/02/22 09:57:28;;;;;;;40.40;8.80;;;9.20;99.50;;;;;;5021245;28;20174;-86
2022/02/22 09:59:54;;;;;;;38.97;8.63;;;9.30;99.60;;;;;;5016022;28;20201;-85
2022/02/22 10:02:19;;;;;;;38.37;9.10;;;9.20;99.40;;;;;;5015365;28;20232;-87
2022/02/22 10:04:48;;;;;;;51.97;10.27;;;9.20;99.70;;;;;;5017540;28;20187;-88
2022/02/22 10:07:16;;;;;;;49.13;10.27;;;9.30;99.90;;;;;;5015516;28;20178;-87
2022/02/22 10:09:59;;;;;;;42.43;9.93;;;9.30;99.90;;;;;;5022572;28;20225;-87
2022/02/22 10:12:36;;;;;;;43.97;9.17;;;9.30;99.90;;;;;;5020362;28;20163;-85
2022/02/22 10:15:03;;;;;;;38.63;8.53;;;9.30;99.90;;;;;;5031714;28;20238;-84
2022/02/22 10:17:36;;;;;;;36.50;8.60;;;9.20;99.90;;;;;;5031959;28;20182;-84
2022/02/22 10:20:03;;;;;;;41.43;10.03;;;9.20;99.90;;;;;;5033008;28;20294;-84
2022/02/22 10:22:30;;;;;;;44.20;9.60;;;9.10;99.90;;;;;;5033573;28;20238;-82
2022/02/22 10:25:08;;;;;;;42.97;9.33;;;9.10;99.90;;;;;;5019586;28;20721;-86
2022/02/22 10:27:50;;;;;;;41.47;9.17;;;9.10;99.90;;;;;;5028736;28;20283;-86
2022/02/22 10:30:43;;;;;;;43.27;10.70;;;9.10;99.90;;;;;;5019966;28;20202;-85
2022/02/22 10:33:28;;;;;;;40.67;8.80;;;9.10;99.90;;;;;;5031351;28;20189;-84
2022/02/22 10:35:58;;;;;;;44.03;9.97;;;9.10;99.90;;;;;;5029872;28;20635;-86
2022/02/22 10:38:26;;;;;;;34.87;8.93;;;9.00;99.90;;;;;;5031271;28;20178;-85
2022/02/22 10:41:13;;;;;;;31.53;8.43;;;9.00;99.90;;;;;;5020186;28;20175;-86
2022/02/22 10:44:11;;;;;;;33.50;8.73;;;8.90;99.90;;;;;;5021328;28;20182;-87
2022/02/22 10:47:44;;;;;;;31.13;8.40;;;8.90;99.90;;;;;;5006993;28;20186;-87
2022/02/22 10:50:31;;;;;;;32.13;8.67;;;8.70;99.90;;;;;;4996947;28;20219;-86
2022/02/22 10:53:13;;;;;;;34.43;9.57;;;8.90;99.90;;;;;;5001403;28;20185;-87
2022/02/22 10:55:48;;;;;;;34.77;9.37;;;8.80;99.90;;;;;;4999474;28;20283;-88
2022/02/22 10:58:14;;;;;;;33.90;9.43;;;8.80;99.90;;;;;;4997125;28;20182;-89
2022/02/22 11:00:41;;;;;;;24.03;7.83;;;8.80;99.90;;;;;;5003875;28;20212;-88
2022/02/22 11:03:09;;;;;;;35.37;9.83;;;8.80;99.90;;;;;;5017381;28;20166;-87
2022/02/22 11:05:36;;;;;;;34.90;8.70;;;8.90;99.90;;;;;;5013938;28;20235;-88
2022/02/22 11:08:03;;;;;;;32.17;8.90;;;9.20;99.90;;;;;;5019387;28;20178;-85
2022/02/22 11:10:30;;;;;;;34.13;9.27;;;9.00;99.90;;;;;;5019105;28;20218;-86
2022/02/22 11:13:00;;;;;;;36.60;9.90;;;9.00;99.90;;;;;;5021340;28;20221;-86
2022/02/22 11:15:36;;;;;;;21.13;7.33;;;9.00;99.90;;;;;;5021492;28;20189;-85
2022/02/22 11:18:17;;;;;;;24.57;8.27;;;9.00;99.90;;;;;;5021908;28;20185;-87
2022/02/22 11:21:06;;;;;;;29.23;8.17;;;9.00;99.90;;;;;;5025430;28;20194;-87
2022/02/22 11:23:32;;;;;;;25.33;8.13;;;9.20;99.90;;;;;;5037628;28;20194;-85
2022/02/22 11:26:05;;;;;;;25.90;7.70;;;9.10;99.90;;;;;;5032611;28;20174;-88
2022/02/22 11:28:39;;;;;;;22.23;8.40;;;9.10;99.90;;;;;;5030607;28;20285;-85
2022/02/22 11:31:11;;;;;;;28.47;8.10;;;9.10;99.90;;;;;;5037224;28;20174;-87
2022/02/22 11:33:44;;;;;;;23.33;7.47;;;9.10;99.90;;;;;;5037205;28;20185;-86
2022/02/22 11:36:11;;;;;;;27.37;7.20;;;9.20;99.90;;;;;;5037958;28;20190;-89
2022/02/22 11:38:46;;;;;;;20.80;7.07;;;9.20;99.90;;;;;;5024686;28;20179;-86
2022/02/22 11:41:22;;;;;;;23.37;7.63;;;9.10;99.90;;;;;;5013086;28;20208;-83
2022/02/22 11:43:58;;;;;;;22.63;7.63;;;9.10;99.90;;;;;;5022317;28;20173;-86
2022/02/22 11:46:40;;;;;;;20.07;7.33;;;9.30;99.90;;;;;;5021498;28;20641;-85
2022/02/22 11:49:08;;;;;;;18.27;7.40;;;9.20;99.90;;;;;;5021928;28;20206;-87
2022/02/22 11:51:41;;;;;;;23.07;7.83;;;9.20;99.90;;;;;;5020293;28;20166;-85
2022/02/22 11:54:17;;;;;;;20.30;7.53;;;9.20;99.90;;;;;;5020444;28;20178;-84
2022/02/22 11:57:07;;;;;;;23.50;7.77;;;9.20;99.90;;;;;;5018527;28;20174;-86
2022/02/22 12:00:01;;;;;;;17.83;7.73;;;9.30;99.90;;;;;;5020917;28;20257;-86
2022/02/22 12:02:42;;;;;;;23.17;7.67;;;9.30;99.90;;;;;;5019367;28;20166;-88
2022/02/22 12:05:28;;;;;;;24.33;7.67;;;9.40;99.90;;;;;;5019665;28;20229;-85
2022/02/22 12:07:59;;;;;;;20.30;7.37;;;9.40;99.90;;;;;;5020301;28;20166;-86
2022/02/22 12:10:26;;;;;;;27.33;8.50;;;9.50;99.90;;;;;;5020435;28;20302;-87
2022/02/22 12:13:04;;;;;;;30.40;9.13;;;9.50;99.90;;;;;;5023404;28;20599;-84
2022/02/22 12:15:34;;;;;;;25.07;7.90;;;9.50;99.90;;;;;;5020000;28;20193;-88
2022/02/22 12:18:00;;;;;;;20.33;8.40;;;9.60;99.90;;;;;;5019158;28;20614;-86
2022/02/22 12:20:28;;;;;;;24.27;8.60;;;9.60;99.90;;;;;;5019147;28;20211;-85
2022/02/22 12:22:57;;;;;;;22.40;9.03;;;9.70;99.90;;;;;;5019973;28;20309;-86
2022/02/22 12:25:36;;;;;;;30.00;8.50;;;9.60;99.90;;;;;;5017730;28;20210;-86
2022/02/22 12:28:06;;;;;;;25.40;7.47;;;9.70;99.90;;;;;;5016773;28;20190;-86
2022/02/22 12:30:33;;;;;;;26.33;9.10;;;9.70;99.90;;;;;;5017191;28;20174;-88
2022/02/22 12:32:59;;;;;;;49.97;24.40;;;9.70;99.90;;;;;;5017330;28;20177;-87
2022/02/22 12:35:39;;;;;;;35.10;14.20;;;9.70;99.90;;;;;;5014868;28;20175;-85
2022/02/22 12:38:15;;;;;;;22.27;7.93;;;9.70;99.90;;;;;;5009466;28;20197;-85
2022/02/22 12:40:42;;;;;;;25.03;7.67;;;9.80;99.90;;;;;;5019315;28;20178;-86
2022/02/22 12:43:09;;;;;;;20.93;7.70;;;9.80;99.90;;;;;;5018213;28;20161;-86
2022/02/22 12:45:46;;;;;;;24.23;7.73;;;10.00;99.90;;;;;;5016883;28;20175;-85
2022/02/22 12:48:14;;;;;;;65.87;48.30;;;9.90;99.90;;;;;;5017313;28;20256;-87
2022/02/22 12:50:41;;;;;;;21.20;7.70;;;10.10;99.90;;;;;;5017023;28;20214;-86